Time;durP1;ratioP1;P1;durP2;ratioP2;P2;SDS_P1;SDS_P2;PMS_P1;PMS_P2;Temp;Humidity;BMP_temperature;BMP_pressure;BME280_temperature;BME280_humidity;BME280_pressure;Samples;Min_cycle;Max_cycle;Signal;HPM_P1;HPM_P2
2022/07/02 00:01:51;;;;;;;;;;;;;;;11.03;43.60;96168.81;5037411;28;21679;-61
2022/07/02 00:04:18;;;;;;;;;;;;;;;11.02;43.02;96166.31;5035890;28;20290;-62
2022/07/02 00:06:43;;;;;;;;;;;;;;;11.02;42.17;96160.97;5037441;28;20046;-62
2022/07/02 00:09:09;;;;;;;;;;;;;;;10.95;42.25;96166.97;5037652;28;19969;-62
2022/07/02 00:11:34;;;;;;;;;;;;;;;10.83;42.41;96166.47;5036872;28;20126;-62
2022/07/02 00:13:59;;;;;;;;;;;;;;;10.79;42.82;96170.47;5036061;28;20024;-62
2022/07/02 00:16:24;;;;;;;;;;;;;;;10.74;43.25;96170.13;5037932;28;19973;-62
2022/07/02 00:18:50;;;;;;;;;;;;;;;10.69;43.04;96164.47;5036269;28;20039;-62
2022/07/02 00:21:15;;;;;;;;;;;;;;;10.74;42.89;96173.63;5037704;28;20035;-62
2022/07/02 00:23:40;;;;;;;;;;;;;;;10.77;43.71;96179.63;5035519;28;20032;-62
2022/07/02 00:26:09;;;;;;;;;;;;;;;10.77;43.56;96179.63;5037646;28;20468;-62
2022/07/02 00:28:36;;;;;;;;;;;;;;;10.74;43.68;96176.28;5036207;28;20442;-61
2022/07/02 00:31:02;;;;;;;;;;;;;;;10.70;44.04;96172.28;5041007;28;20421;-62
2022/07/02 00:33:27;;;;;;;;;;;;;;;10.68;43.91;96171.63;5041180;28;20410;-62
2022/07/02 00:35:52;;;;;;;;;;;;;;;10.67;43.75;96177.13;5040462;28;20465;-62
2022/07/02 00:38:18;;;;;;;;;;;;;;;10.66;43.93;96180.78;5040289;28;20393;-62
2022/07/02 00:40:43;;;;;;;;;;;;;;;10.67;43.80;96171.81;5040594;28;19996;-62
2022/07/02 00:43:08;;;;;;;;;;;;;;;10.64;43.49;96174.78;5038778;28;19993;-62
2022/07/02 00:45:34;;;;;;;;;;;;;;;10.58;43.85;96169.09;5043811;28;20186;-62
2022/07/02 00:47:59;;;;;;;;;;;;;;;10.54;43.78;96175.75;5042402;28;19976;-62
2022/07/02 00:50:25;;;;;;;;;;;;;;;10.48;43.73;96176.44;5043358;28;20021;-62
2022/07/02 00:52:50;;;;;;;;;;;;;;;10.45;43.83;96169.59;5043749;28;20285;-62
2022/07/02 00:55:15;;;;;;;;;;;;;;;10.44;43.06;96167.13;5043253;28;20044;-62
2022/07/02 00:57:41;;;;;;;;;;;;;;;10.38;43.06;96176.59;5041179;28;19975;-62
2022/07/02 01:00:06;;;;;;;;;;;;;;;10.41;42.70;96170.09;5043478;28;19972;-62
2022/07/02 01:02:32;;;;;;;;;;;;;;;10.26;42.87;96178.69;5043220;28;19997;-62
2022/07/02 01:04:57;;;;;;;;;;;;;;;10.23;42.80;96173.69;5041931;28;20079;-62
2022/07/02 01:07:22;;;;;;;;;;;;;;;10.17;42.56;96180.50;5043154;28;20300;-62
2022/07/02 01:12:31;;;;;;;;;;;;;;;10.11;43.64;96173.19;5043061;28;20480;-62
2022/07/02 01:14:56;;;;;;;;;;;;;;;10.16;43.57;96170.03;5041833;28;19989;-63
2022/07/02 01:17:22;;;;;;;;;;;;;;;10.19;43.73;96164.38;5040903;28;20344;-63
2022/07/02 01:19:47;;;;;;;;;;;;;;;10.10;43.53;96167.00;5043075;28;19993;-63
2022/07/02 01:22:13;;;;;;;;;;;;;;;10.10;42.97;96172.34;5043288;28;20000;-63
2022/07/02 01:24:38;;;;;;;;;;;;;;;10.07;42.84;96169.19;5043116;28;19992;-63
2022/07/02 01:27:03;;;;;;;;;;;;;;;10.06;43.15;96163.00;5042588;28;20095;-63
2022/07/02 01:29:28;;;;;;;;;;;;;;;10.02;43.00;96158.97;5042737;28;20457;-63
2022/07/02 01:31:54;;;;;;;;;;;;;;;9.95;43.35;96156.13;5041773;28;20075;-63
2022/07/02 01:34:19;;;;;;;;;;;;;;;9.96;43.48;96156.94;5042755;28;20022;-63
2022/07/02 01:36:44;;;;;;;;;;;;;;;9.95;44.13;96149.97;5042666;28;20342;-64
2022/07/02 01:39:09;;;;;;;;;;;;;;;9.88;44.13;96147.13;5042103;28;20393;-64
2022/07/02 01:41:40;;;;;;;;;;;;;;;9.85;44.41;96150.94;5042222;28;19969;-63
2022/07/02 01:44:09;;;;;;;;;;;;;;;9.80;43.93;96147.09;5042909;28;20004;-65
2022/07/02 01:46:34;;;;;;;;;;;;;;;9.82;43.62;96145.94;5042700;28;19997;-64
2022/07/02 01:49:00;;;;;;;;;;;;;;;9.80;43.17;96149.75;5042795;28;19966;-64
2022/07/02 01:51:25;;;;;;;;;;;;;;;9.76;43.44;96149.22;5042285;28;20096;-64
2022/07/02 01:53:50;;;;;;;;;;;;;;;9.72;43.68;96161.19;5041241;28;19969;-64
2022/07/02 01:56:15;;;;;;;;;;;;;;;9.70;43.74;96157.88;5040557;28;19973;-64
2022/07/02 01:58:41;;;;;;;;;;;;;;;9.66;43.87;96159.16;5041273;28;19985;-64
2022/07/02 02:01:06;;;;;;;;;;;;;;;9.65;43.84;96154.84;5041780;28;19983;-64
2022/07/02 02:03:31;;;;;;;;;;;;;;;9.62;43.80;96153.31;5040319;28;20084;-64
2022/07/02 02:05:56;;;;;;;;;;;;;;;9.63;43.82;96146.19;5041097;28;20072;-64
2022/07/02 02:08:22;;;;;;;;;;;;;;;9.57;43.37;96143.19;5041447;28;20015;-66
2022/07/02 02:10:47;;;;;;;;;;;;;;;9.57;43.32;96145.00;5040728;28;20062;-64
2022/07/02 02:13:12;;;;;;;;;;;;;;;9.50;43.32;96151.94;5042078;28;19973;-64
2022/07/02 02:15:37;;;;;;;;;;;;;;;9.43;43.66;96152.59;5041373;28;20024;-60
2022/07/02 02:18:03;;;;;;;;;;;;;;;9.43;44.31;96159.72;5042273;28;19997;-58
2022/07/02 02:20:28;;;;;;;;;;;;;;;9.51;44.67;96156.25;5041753;28;19986;-59
2022/07/02 02:22:53;;;;;;;;;;;;;;;9.50;44.77;96160.75;5041110;28;20066;-60
2022/07/02 02:25:18;;;;;;;;;;;;;;;9.47;44.72;96163.72;5041875;28;20072;-59
2022/07/02 02:27:43;;;;;;;;;;;;;;;9.45;44.42;96155.06;5042789;28;20020;-59
2022/07/02 02:30:09;;;;;;;;;;;;;;;9.43;44.68;96160.56;5041461;28;19993;-60
2022/07/02 02:32:36;;;;;;;;;;;;;;;9.43;44.30;96159.72;5041980;28;19973;-63
2022/07/02 02:35:02;;;;;;;;;;;;;;;9.42;43.80;96144.78;5041064;28;20047;-62
2022/07/02 02:37:27;;;;;;;;;;;;;;;9.44;43.70;96158.72;5041205;28;20005;-62
2022/07/02 02:39:52;;;;;;;;;;;;;;;9.35;43.84;96147.19;5040902;28;19993;-62
2022/07/02 02:42:18;;;;;;;;;;;;;;;9.31;43.84;96153.81;5040128;28;19984;-62
2022/07/02 02:44:43;;;;;;;;;;;;;;;9.24;44.33;96153.63;5041025;28;20099;-63
2022/07/02 02:47:08;;;;;;;;;;;;;;;9.22;44.13;96155.63;5040903;28;20699;-63
2022/07/02 02:49:33;;;;;;;;;;;;;;;9.13;43.99;96156.53;5041860;28;20411;-62
2022/07/02 02:51:58;;;;;;;;;;;;;;;9.18;44.43;96155.06;5040631;28;19993;-62
2022/07/02 02:54:24;;;;;;;;;;;;;;;9.16;44.97;96148.25;5041305;28;20075;-63
2022/07/02 02:56:49;;;;;;;;;;;;;;;9.17;44.66;96157.88;5039491;28;19984;-63
2022/07/02 02:59:14;;;;;;;;;;;;;;;9.19;44.08;96155.91;5039263;28;20068;-63
2022/07/02 03:01:40;;;;;;;;;;;;;;;9.20;44.38;96168.19;5040668;28;20372;-65
2022/07/02 03:04:05;;;;;;;;;;;;;;;9.20;43.96;96163.75;5040678;28;20000;-66
2022/07/02 03:06:30;;;;;;;;;;;;;;;9.16;44.57;96161.53;5039812;28;20116;-64
2022/07/02 03:08:55;;;;;;;;;;;;;;;9.10;44.80;96167.47;5040621;28;20299;-65
2022/07/02 03:11:20;;;;;;;;;;;;;;;9.11;44.75;96172.63;5039645;28;20095;-64
2022/07/02 03:13:46;;;;;;;;;;;;;;;9.11;44.77;96171.81;5040413;28;20465;-64
2022/07/02 03:16:11;;;;;;;;;;;;;;;9.15;44.34;96173.97;5040183;28;20365;-64
2022/07/02 03:18:36;;;;;;;;;;;;;;;9.19;44.39;96179.81;5040263;28;19989;-64
2022/07/02 03:21:01;;;;;;;;;;;;;;;9.15;44.21;96175.81;5040094;28;20527;-64
2022/07/02 03:23:27;;;;;;;;;;;;;;;9.12;44.24;96174.31;5040646;28;20051;-63
2022/07/02 03:25:52;;;;;;;;;;;;;;;9.11;44.74;96175.28;5040339;28;20001;-64
2022/07/02 03:28:17;;;;;;;;;;;;;;;9.03;45.03;96181.38;5040973;28;20438;-64
2022/07/02 03:30:42;;;;;;;;;;;;;;;9.04;45.30;96184.84;5040217;28;19993;-64
2022/07/02 03:33:08;;;;;;;;;;;;;;;9.15;44.49;96184.59;5039293;28;20099;-64
2022/07/02 03:35:33;;;;;;;;;;;;;;;9.19;44.32;96185.13;5040543;28;20090;-65
2022/07/02 03:37:58;;;;;;;;;;;;;;;9.18;45.05;96186.94;5039808;28;20062;-65
2022/07/02 03:40:23;;;;;;;;;;;;;;;9.23;45.13;96183.84;5040021;28;20381;-65
2022/07/02 03:42:49;;;;;;;;;;;;;;;9.28;45.28;96189.50;5040377;28;20378;-64
2022/07/02 03:45:14;;;;;;;;;;;;;;;9.26;45.17;96188.00;5040571;28;20024;-65
2022/07/02 03:47:39;;;;;;;;;;;;;;;9.27;44.95;96184.34;5040382;28;20465;-64
2022/07/02 03:50:05;;;;;;;;;;;;;;;9.36;43.91;96195.88;5039931;28;20015;-65
2022/07/02 03:52:30;;;;;;;;;;;;;;;9.43;44.11;96189.78;5039808;28;19973;-63
2022/07/02 03:54:55;;;;;;;;;;;;;;;9.37;44.61;96198.38;5040120;28;20346;-64
2022/07/02 03:57:20;;;;;;;;;;;;;;;9.35;44.36;96200.34;5038178;28;20420;-65
2022/07/02 03:59:45;;;;;;;;;;;;;;;9.36;44.99;96201.19;5039546;28;19996;-65
2022/07/02 04:02:11;;;;;;;;;;;;;;;9.41;45.36;96202.38;5038743;28;19993;-65
2022/07/02 04:04:36;;;;;;;;;;;;;;;9.49;45.06;96204.28;5039562;28;19989;-65
2022/07/02 04:07:01;;;;;;;;;;;;;;;9.55;44.39;96205.44;5039350;28;20514;-65
2022/07/02 04:09:26;;;;;;;;;;;;;;;9.61;44.97;96199.50;5039804;28;20563;-65
2022/07/02 04:11:52;;;;;;;;;;;;;;;9.71;44.67;96192.28;5040059;28;20064;-65
2022/07/02 04:14:17;;;;;;;;;;;;;;;9.80;44.23;96195.78;5039558;28;20000;-65
2022/07/02 04:16:43;;;;;;;;;;;;;;;9.92;44.35;96193.69;5039955;28;19976;-66
2022/07/02 04:19:08;;;;;;;;;;;;;;;10.02;43.56;96196.22;5041004;28;20001;-65
2022/07/02 04:21:33;;;;;;;;;;;;;;;10.05;43.86;96198.59;5043670;28;19989;-65
2022/07/02 04:23:58;;;;;;;;;;;;;;;10.08;43.75;96187.63;5043253;28;19993;-65
2022/07/02 04:26:24;;;;;;;;;;;;;;;10.10;43.93;96187.47;5043105;28;20481;-65
2022/07/02 04:28:49;;;;;;;;;;;;;;;10.18;43.69;96192.81;5042196;28;19965;-65
2022/07/02 04:31:14;;;;;;;;;;;;;;;10.25;43.77;96193.00;5043077;28;20047;-66
2022/07/02 04:33:39;;;;;;;;;;;;;;;10.35;44.19;96183.06;5042927;28;20030;-64
2022/07/02 04:36:05;;;;;;;;;;;;;;;10.47;43.64;96174.75;5042723;28;19973;-64
2022/07/02 04:38:30;;;;;;;;;;;;;;;10.53;44.35;96179.44;5042769;28;20001;-65
2022/07/02 04:40:55;;;;;;;;;;;;;;;10.61;44.86;96184.75;5044065;28;20034;-66
2022/07/02 04:43:20;;;;;;;;;;;;;;;10.77;44.01;96185.78;5042874;28;20001;-65
2022/07/02 04:45:46;;;;;;;;;;;;;;;10.92;44.13;96182.47;5043415;28;20402;-65
2022/07/02 04:48:11;;;;;;;;;;;;;;;11.03;44.48;96175.97;5043373;28;19973;-65
2022/07/02 04:50:36;;;;;;;;;;;;;;;11.18;44.46;96176.97;5042444;28;20087;-65
2022/07/02 04:53:01;;;;;;;;;;;;;;;11.34;44.44;96180.63;5043035;28;19976;-65
2022/07/02 04:55:26;;;;;;;;;;;;;;;11.45;44.63;96187.44;5043105;28;20531;-65
2022/07/02 04:57:52;;;;;;;;;;;;;;;11.61;44.31;96181.25;5042627;28;20493;-65
2022/07/02 05:00:17;;;;;;;;;;;;;;;11.77;44.20;96185.72;5043194;28;19973;-66
2022/07/02 05:02:42;;;;;;;;;;;;;;;11.87;44.22;96180.97;5042959;28;19997;-65
2022/07/02 05:05:07;;;;;;;;;;;;;;;11.99;44.15;96183.28;5042053;28;19985;-65
2022/07/02 05:07:33;;;;;;;;;;;;;;;12.15;44.08;96185.09;5042906;28;20382;-65
2022/07/02 05:09:58;;;;;;;;;;;;;;;12.25;44.40;96191.06;5042380;28;19993;-65
2022/07/02 05:12:24;;;;;;;;;;;;;;;12.46;44.66;96189.59;5042696;28;19966;-66
2022/07/02 05:14:49;;;;;;;;;;;;;;;12.61;44.90;96189.66;5042924;28;19988;-66
2022/07/02 05:17:14;;;;;;;;;;;;;;;12.82;44.56;96196.22;5043528;28;20020;-65
2022/07/02 05:19:40;;;;;;;;;;;;;;;13.03;44.20;96190.22;5042542;28;20697;-66
2022/07/02 05:22:05;;;;;;;;;;;;;;;13.24;44.20;96188.72;5042627;28;20001;-66
2022/07/02 05:24:30;;;;;;;;;;;;;;;13.41;44.12;96177.88;5041726;28;20010;-65
2022/07/02 05:26:55;;;;;;;;;;;;;;;13.63;44.07;96186.00;5042432;28;20000;-65
2022/07/02 05:29:21;;;;;;;;;;;;;;;13.84;44.10;96190.63;5042650;28;20064;-65
2022/07/02 05:31:46;;;;;;;;;;;;;;;14.06;43.84;96201.44;5041383;28;20042;-66
2022/07/02 05:34:11;;;;;;;;;;;;;;;14.23;43.49;96206.56;5042485;28;20237;-65
2022/07/02 05:36:36;;;;;;;;;;;;;;;14.34;43.65;96206.09;5042987;28;19975;-66
2022/07/02 05:39:02;;;;;;;;;;;;;;;14.54;43.09;96200.16;5040641;28;19999;-65
2022/07/02 05:41:27;;;;;;;;;;;;;;;14.72;42.48;96195.19;5042581;28;20558;-69
2022/07/02 05:43:52;;;;;;;;;;;;;;;14.97;42.01;96202.91;5041486;28;19989;-65
2022/07/02 05:46:17;;;;;;;;;;;;;;;15.18;41.66;96211.09;5042518;28;20039;-65
2022/07/02 05:48:43;;;;;;;;;;;;;;;15.39;40.94;96212.09;5042265;28;20044;-65
2022/07/02 05:51:08;;;;;;;;;;;;;;;15.60;40.66;96216.63;5042210;28;20000;-65
2022/07/02 05:53:33;;;;;;;;;;;;;;;15.80;40.57;96215.91;5041889;28;20361;-65
2022/07/02 05:55:58;;;;;;;;;;;;;;;15.95;39.08;96221.19;5041858;28;20427;-65
2022/07/02 05:58:24;;;;;;;;;;;;;;;15.96;37.30;96212.09;5041866;28;20042;-65
2022/07/02 06:00:49;;;;;;;;;;;;;;;16.02;36.24;96211.31;5042673;28;20447;-65
2022/07/02 06:03:14;;;;;;;;;;;;;;;15.78;37.18;96209.94;5041572;28;20085;-65
2022/07/02 06:08:23;;;;;;;;;;;;;;;15.05;37.91;96211.81;5041769;28;20236;-65
2022/07/02 06:10:48;;;;;;;;;;;;;;;15.15;37.88;96211.50;5042222;28;19987;-65
2022/07/02 06:13:15;;;;;;;;;;;;;;;15.20;38.23;96217.94;5042143;28;19972;-66
2022/07/02 06:15:40;;;;;;;;;;;;;;;16.07;36.32;96216.91;5042873;28;19989;-66
2022/07/02 06:18:06;;;;;;;;;;;;;;;16.51;36.15;96217.56;5042629;28;20354;-65
2022/07/02 06:20:31;;;;;;;;;;;;;;;16.89;34.96;96216.22;5042829;28;20256;-65
2022/07/02 06:22:56;;;;;;;;;;;;;;;17.04;34.42;96223.28;5039671;28;19993;-65
2022/07/02 06:25:21;;;;;;;;;;;;;;;17.02;34.93;96219.94;5041906;28;20101;-70
2022/07/02 06:27:47;;;;;;;;;;;;;;;17.39;34.74;96224.97;5042573;28;20420;-65
2022/07/02 06:30:12;;;;;;;;;;;;;;;17.40;34.37;96218.53;5041758;28;19993;-65
2022/07/02 06:32:37;;;;;;;;;;;;;;;17.60;33.90;96220.41;5043345;28;20393;-65
2022/07/02 06:35:03;;;;;;;;;;;;;;;17.71;33.76;96227.84;5041745;28;19991;-65
2022/07/02 06:37:28;;;;;;;;;;;;;;;17.22;34.36;96222.69;5042659;28;20507;-65
2022/07/02 06:39:53;;;;;;;;;;;;;;;16.71;36.01;96227.53;5040446;28;19987;-65
2022/07/02 06:42:18;;;;;;;;;;;;;;;16.75;36.11;96236.84;5041675;28;19999;-65
2022/07/02 06:44:44;;;;;;;;;;;;;;;17.17;34.87;96222.50;5041848;28;20004;-65
2022/07/02 06:47:09;;;;;;;;;;;;;;;17.77;33.99;96229.72;5041870;28;19989;-65
2022/07/02 06:49:36;;;;;;;;;;;;;;;17.57;33.94;96235.09;5040419;28;20209;-65
2022/07/02 06:52:01;;;;;;;;;;;;;;;16.60;34.27;96237.03;5041965;28;20409;-65
2022/07/02 06:54:27;;;;;;;;;;;;;;;17.52;32.86;96230.38;5039971;28;20277;-66
2022/07/02 06:56:52;;;;;;;;;;;;;;;17.75;33.17;96231.78;5041811;28;19974;-65
2022/07/02 06:59:17;;;;;;;;;;;;;;;18.04;31.45;96232.38;5040844;28;20007;-65
2022/07/02 07:01:42;;;;;;;;;;;;;;;18.14;31.97;96231.09;5041221;28;19969;-66
2022/07/02 07:04:08;;;;;;;;;;;;;;;18.49;31.04;96233.47;5040965;28;20050;-66
2022/07/02 07:06:37;;;;;;;;;;;;;;;18.67;31.12;96240.06;5040971;28;20275;-66
2022/07/02 07:09:02;;;;;;;;;;;;;;;18.38;30.88;96247.63;5039946;28;19973;-65
2022/07/02 07:11:27;;;;;;;;;;;;;;;18.50;31.23;96235.16;5040617;28;19999;-66
2022/07/02 07:13:53;;;;;;;;;;;;;;;17.90;31.03;96238.84;5040702;28;20057;-66
2022/07/02 07:16:18;;;;;;;;;;;;;;;18.13;31.14;96237.53;5040829;28;19964;-66
2022/07/02 07:19:03;;;;;;;;;;;;;;;18.59;30.03;96238.44;5040404;28;20579;-65
2022/07/02 07:21:28;;;;;;;;;;;;;;;18.53;29.19;96239.28;5040571;28;20133;-65
2022/07/02 07:23:53;;;;;;;;;;;;;;;18.75;30.99;96241.69;5040329;28;20071;-65
2022/07/02 07:26:18;;;;;;;;;;;;;;;18.15;31.53;96233.59;5037877;28;19990;-65
2022/07/02 07:28:44;;;;;;;;;;;;;;;18.52;29.39;96230.34;5040744;28;20320;-65
2022/07/02 07:31:09;;;;;;;;;;;;;;;18.84;30.04;96232.31;5038894;28;20060;-65
2022/07/02 07:33:34;;;;;;;;;;;;;;;19.20;29.36;96230.00;5040587;28;19965;-65
2022/07/02 07:36:00;;;;;;;;;;;;;;;19.04;29.48;96229.47;5037891;28;19962;-65
2022/07/02 07:38:25;;;;;;;;;;;;;;;19.48;29.17;96234.19;5039778;28;19993;-65
2022/07/02 07:40:50;;;;;;;;;;;;;;;18.87;29.42;96233.75;5041495;28;20348;-64
2022/07/02 07:43:15;;;;;;;;;;;;;;;19.32;29.36;96236.38;5041682;28;20078;-65
2022/07/02 07:45:41;;;;;;;;;;;;;;;19.11;30.20;96236.72;5041074;28;20481;-65
2022/07/02 07:48:06;;;;;;;;;;;;;;;18.77;31.10;96242.31;5041942;28;20083;-65
2022/07/02 07:50:31;;;;;;;;;;;;;;;19.14;28.81;96239.78;5040899;28;20419;-65
2022/07/02 07:52:56;;;;;;;;;;;;;;;19.19;27.99;96242.69;5041558;28;19963;-65
2022/07/02 07:55:22;;;;;;;;;;;;;;;19.27;27.47;96232.66;5040316;28;20490;-65
2022/07/02 07:57:47;;;;;;;;;;;;;;;19.12;30.11;96241.88;5040870;28;20367;-65
2022/07/02 08:00:12;;;;;;;;;;;;;;;19.67;27.97;96245.03;5039446;28;19957;-65
2022/07/02 08:02:37;;;;;;;;;;;;;;;19.65;27.64;96242.53;5040081;28;19982;-65
2022/07/02 08:05:03;;;;;;;;;;;;;;;19.17;28.26;96243.94;5041052;28;20064;-65
2022/07/02 08:07:28;;;;;;;;;;;;;;;19.19;28.99;96244.53;5039578;28;19983;-65
2022/07/02 08:09:54;;;;;;;;;;;;;;;19.06;27.89;96240.88;5039996;28;19987;-66
2022/07/02 08:12:22;;;;;;;;;;;;;;;19.46;29.33;96233.56;5041062;28;20021;-65
2022/07/02 08:14:47;;;;;;;;;;;;;;;19.91;28.87;96237.09;5038001;28;20149;-65
2022/07/02 08:17:12;;;;;;;;;;;;;;;20.15;25.86;96235.44;5041325;28;19978;-65
2022/07/02 08:19:38;;;;;;;;;;;;;;;20.25;27.02;96237.63;5041256;28;20073;-65
2022/07/02 08:22:03;;;;;;;;;;;;;;;20.21;27.57;96228.31;5040132;28;20440;-65
2022/07/02 08:24:29;;;;;;;;;;;;;;;20.32;27.83;96235.66;5040496;28;20380;-65
2022/07/02 08:26:54;;;;;;;;;;;;;;;20.51;27.46;96232.97;5040293;28;19984;-65
2022/07/02 08:29:19;;;;;;;;;;;;;;;20.26;25.87;96235.75;5041605;28;20476;-65
2022/07/02 08:31:45;;;;;;;;;;;;;;;21.12;25.27;96230.25;5040286;28;20334;-65
2022/07/02 08:34:10;;;;;;;;;;;;;;;21.35;25.36;96225.19;5039814;28;19980;-65
2022/07/02 08:36:35;;;;;;;;;;;;;;;21.34;25.28;96227.06;5039485;28;20914;-65
2022/07/02 08:39:00;;;;;;;;;;;;;;;21.17;25.46;96234.19;5041258;28;19988;-65
2022/07/02 08:41:26;;;;;;;;;;;;;;;19.80;27.58;96236.81;5040349;28;20437;-66
2022/07/02 08:43:51;;;;;;;;;;;;;;;20.51;24.65;96249.19;5040669;28;20467;-65
2022/07/02 08:46:16;;;;;;;;;;;;;;;19.32;25.63;96246.34;5040998;28;19984;-65
2022/07/02 08:48:41;;;;;;;;;;;;;;;17.49;28.71;96238.84;5040774;28;19989;-65
2022/07/02 08:51:07;;;;;;;;;;;;;;;19.63;28.14;96235.72;5040502;28;20018;-65
2022/07/02 08:53:32;;;;;;;;;;;;;;;19.79;25.08;96229.72;5041937;28;20005;-65
2022/07/02 08:55:57;;;;;;;;;;;;;;;20.47;25.49;96229.06;5042173;28;20047;-66
2022/07/02 08:58:23;;;;;;;;;;;;;;;20.14;26.93;96225.69;5040248;28;20098;-66
2022/07/02 09:00:48;;;;;;;;;;;;;;;20.40;26.84;96239.97;5040186;28;19949;-65
2022/07/02 09:03:14;;;;;;;;;;;;;;;20.98;26.62;96232.34;5040976;28;20233;-65
2022/07/02 09:05:39;;;;;;;;;;;;;;;21.22;25.54;96228.91;5043639;28;20074;-65
2022/07/02 09:08:05;;;;;;;;;;;;;;;21.22;24.20;96228.91;5045192;28;20548;-65
2022/07/02 09:10:30;;;;;;;;;;;;;;;21.41;25.62;96223.44;5045191;28;19979;-66
2022/07/02 09:12:55;;;;;;;;;;;;;;;22.11;24.03;96221.81;5045340;28;19952;-66
2022/07/02 09:15:21;;;;;;;;;;;;;;;21.79;25.31;96216.72;5044919;28;19965;-65
2022/07/02 09:17:46;;;;;;;;;;;;;;;21.96;23.17;96216.06;5043644;28;20432;-66
2022/07/02 09:20:12;;;;;;;;;;;;;;;21.78;24.79;96223.19;5044920;28;19950;-66
2022/07/02 09:22:41;;;;;;;;;;;;;;;22.22;24.10;96222.00;5044581;28;20584;-65
2022/07/02 09:25:07;;;;;;;;;;;;;;;22.18;24.25;96224.38;5043941;28;19964;-65
2022/07/02 09:27:32;;;;;;;;;;;;;;;22.53;22.23;96219.97;5044837;28;19966;-66
2022/07/02 09:29:57;;;;;;;;;;;;;;;22.71;23.27;96215.44;5045404;28;20097;-65
2022/07/02 09:32:22;;;;;;;;;;;;;;;22.73;21.21;96218.69;5045458;28;20001;-65
2022/07/02 09:34:49;;;;;;;;;;;;;;;22.88;22.87;96215.47;5044705;28;20062;-66
2022/07/02 09:37:14;;;;;;;;;;;;;;;21.41;23.58;96205.28;5044239;28;20010;-65
2022/07/02 09:39:39;;;;;;;;;;;;;;;22.05;23.43;96211.06;5041185;28;19974;-65
2022/07/02 09:42:05;;;;;;;;;;;;;;;22.61;22.94;96211.44;5037718;28;19983;-66
2022/07/02 09:44:30;;;;;;;;;;;;;;;22.60;22.63;96211.69;5038833;28;19946;-66
2022/07/02 09:46:55;;;;;;;;;;;;;;;21.72;21.71;96210.63;5036566;28;19982;-65
2022/07/02 09:49:21;;;;;;;;;;;;;;;22.14;21.49;96204.25;5040817;28;19965;-66
2022/07/02 09:51:49;;;;;;;;;;;;;;;22.24;22.97;96198.19;5040122;28;20030;-66
2022/07/02 09:54:18;;;;;;;;;;;;;;;22.50;21.73;96206.88;5040349;28;20272;-66
2022/07/02 09:56:50;;;;;;;;;;;;;;;21.76;21.80;96203.66;5037958;28;20033;-66
2022/07/02 09:59:15;;;;;;;;;;;;;;;21.90;21.60;96193.41;5037955;28;20417;-66
2022/07/02 10:01:44;;;;;;;;;;;;;;;22.84;21.65;96198.84;5036172;28;19963;-66
2022/07/02 10:04:09;;;;;;;;;;;;;;;23.37;19.70;96190.53;5038076;28;19965;-66
2022/07/02 10:06:34;;;;;;;;;;;;;;;23.43;21.18;96181.38;5040996;28;20026;-66
2022/07/02 10:08:59;;;;;;;;;;;;;;;24.19;21.45;96179.22;5040433;28;19969;-66
2022/07/02 10:11:25;;;;;;;;;;;;;;;23.98;20.77;96185.47;5039490;28;20027;-66
2022/07/02 10:13:50;;;;;;;;;;;;;;;24.17;20.93;96175.91;5037952;28;20039;-66
2022/07/02 10:16:17;;;;;;;;;;;;;;;24.62;19.50;96175.09;5039424;28;19954;-66
2022/07/02 10:18:43;;;;;;;;;;;;;;;24.61;20.15;96182.44;5040074;28;20000;-66
2022/07/02 10:21:10;;;;;;;;;;;;;;;22.09;22.22;96187.88;5040388;28;20492;-65
2022/07/02 10:23:35;;;;;;;;;;;;;;;21.46;24.20;96182.91;5039865;28;19998;-64
2022/07/02 10:26:01;;;;;;;;;;;;;;;23.27;21.44;96179.50;5038575;28;20360;-61
2022/07/02 10:28:26;;;;;;;;;;;;;;;23.52;20.67;96178.28;5041803;28;19960;-61
2022/07/02 10:30:51;;;;;;;;;;;;;;;24.41;20.85;96170.25;5040493;28;19975;-61
2022/07/02 10:33:28;;;;;;;;;;;;;;;24.66;19.75;96170.78;5041283;28;20625;-62
2022/07/02 10:35:53;;;;;;;;;;;;;;;24.67;20.77;96173.25;5037623;28;20015;-63
2022/07/02 10:38:28;;;;;;;;;;;;;;;24.80;20.44;96158.41;5040126;28;20043;-61
2022/07/02 10:40:53;;;;;;;;;;;;;;;24.87;21.27;96158.22;5042720;28;19996;-61
2022/07/02 10:43:19;;;;;;;;;;;;;;;24.53;20.14;96166.56;5042659;28;19965;-61
2022/07/02 10:45:44;;;;;;;;;;;;;;;24.12;20.01;96161.44;5040247;28;20048;-62
2022/07/02 10:48:10;;;;;;;;;;;;;;;21.89;23.75;96167.38;5040469;28;20101;-61
2022/07/02 10:50:39;;;;;;;;;;;;;;;23.07;21.54;96158.25;5041009;28;20465;-62
2022/07/02 10:53:13;;;;;;;;;;;;;;;23.30;21.74;96160.00;5041392;28;19960;-61
2022/07/02 10:55:39;;;;;;;;;;;;;;;23.60;21.20;96149.84;5040407;28;20735;-63
2022/07/02 10:58:05;;;;;;;;;;;;;;;23.86;22.32;96151.06;5040427;28;19962;-61
2022/07/02 11:00:34;;;;;;;;;;;;;;;23.51;22.41;96149.44;5040199;28;19951;-62
2022/07/02 11:03:13;;;;;;;;;;;;;;;23.58;22.45;96144.66;5035891;28;19971;-62
2022/07/02 11:05:55;;;;;;;;;;;;;;;24.20;21.06;96150.94;5039512;28;20026;-61
2022/07/02 11:08:39;;;;;;;;;;;;;;;24.22;21.03;96137.09;5039840;28;20077;-62
2022/07/02 11:11:04;;;;;;;;;;;;;;;24.19;21.88;96143.88;5037668;28;20017;-63
2022/07/02 11:13:32;;;;;;;;;;;;;;;24.25;20.82;96138.47;5038290;28;19943;-62
2022/07/02 11:15:57;;;;;;;;;;;;;;;24.67;21.97;96132.44;5038299;28;20022;-62
2022/07/02 11:18:22;;;;;;;;;;;;;;;24.84;21.27;96134.22;5040070;28;20079;-62
2022/07/02 11:20:48;;;;;;;;;;;;;;;24.80;21.70;96133.91;5040178;28;19937;-62
2022/07/02 11:23:13;;;;;;;;;;;;;;;25.18;22.12;96130.44;5039547;28;20580;-61
2022/07/02 11:25:38;;;;;;;;;;;;;;;25.59;19.48;96124.47;5037784;28;19949;-62
2022/07/02 11:28:03;;;;;;;;;;;;;;;25.22;20.26;96118.78;5037286;28;20000;-61
2022/07/02 11:30:30;;;;;;;;;;;;;;;25.68;20.45;96114.72;5039312;28;19965;-62
2022/07/02 11:32:55;;;;;;;;;;;;;;;25.95;20.85;96108.31;5040564;28;20000;-62
2022/07/02 11:35:21;;;;;;;;;;;;;;;26.51;20.11;96114.22;5039705;28;19960;-62
2022/07/02 11:37:46;;;;;;;;;;;;;;;26.30;19.19;96121.56;5039861;28;19996;-61
2022/07/02 11:40:18;;;;;;;;;;;;;;;26.61;19.72;96105.28;5040011;28;19974;-61
2022/07/02 11:42:43;;;;;;;;;;;;;;;26.51;18.66;96103.31;5038270;28;19992;-62
2022/07/02 11:45:08;;;;;;;;;;;;;;;26.46;19.40;96098.69;5039189;28;20350;-62
2022/07/02 11:47:41;;;;;;;;;;;;;;;26.74;20.34;96096.56;5039758;28;19962;-62
2022/07/02 11:50:07;;;;;;;;;;;;;;;27.21;18.04;96088.41;5039405;28;19953;-62
2022/07/02 11:52:32;;;;;;;;;;;;;;;26.36;19.44;96085.84;5039012;28;20710;-63
2022/07/02 11:54:57;;;;;;;;;;;;;;;26.61;18.98;96086.16;5040048;28;20422;-64
2022/07/02 11:57:31;;;;;;;;;;;;;;;26.70;19.02;96090.00;5040263;28;20608;-62
2022/07/02 11:59:56;;;;;;;;;;;;;;;25.94;19.45;96098.47;5038212;28;20259;-63
2022/07/02 12:02:21;;;;;;;;;;;;;;;25.97;19.87;96097.94;5038577;28;20631;-62
2022/07/02 12:04:47;;;;;;;;;;;;;;;26.48;19.35;96093.75;5036574;28;19943;-64
2022/07/02 12:07:13;;;;;;;;;;;;;;;27.05;18.75;96089.47;5038522;28;20036;-64
2022/07/02 12:09:38;;;;;;;;;;;;;;;27.30;19.61;96075.00;5038794;28;19932;-64
2022/07/02 12:12:04;;;;;;;;;;;;;;;27.86;17.65;96081.41;5039469;28;19945;-64
2022/07/02 12:14:29;;;;;;;;;;;;;;;27.26;18.26;96079.38;5034972;28;20448;-64
2022/07/02 12:16:55;;;;;;;;;;;;;;;27.17;16.96;96081.84;5037079;28;19935;-64
2022/07/02 12:19:22;;;;;;;;;;;;;;;27.59;18.00;96087.22;5037353;28;19921;-64
2022/07/02 12:21:50;;;;;;;;;;;;;;;26.84;17.30;96078.53;5038205;28;20018;-65
2022/07/02 12:24:22;;;;;;;;;;;;;;;26.18;17.49;96075.41;5038387;28;20340;-65
2022/07/02 12:26:48;;;;;;;;;;;;;;;25.94;18.08;96079.38;5038973;28;20006;-65
2022/07/02 12:32:04;;;;;;;;;;;;;;;26.86;17.71;96070.91;5038720;28;22060;-66
2022/07/02 12:34:36;;;;;;;;;;;;;;;26.92;17.95;96069.00;5036901;28;19984;-65
2022/07/02 12:37:01;;;;;;;;;;;;;;;26.07;18.37;96058.22;5037993;28;19934;-66
2022/07/02 12:39:37;;;;;;;;;;;;;;;26.49;19.99;96059.94;5038245;28;20335;-65
2022/07/02 12:42:19;;;;;;;;;;;;;;;27.23;17.88;96053.41;5041928;28;20031;-65
2022/07/02 12:45:10;;;;;;;;;;;;;;;27.84;17.05;96048.03;5042198;28;19917;-65
2022/07/02 12:47:36;;;;;;;;;;;;;;;27.95;17.18;96056.22;5037349;28;20395;-65
2022/07/02 12:50:20;;;;;;;;;;;;;;;28.20;17.26;96055.28;5042258;28;19959;-66